Airfield :
LOGIN :

Register | Disclaimer

   EN    FR    IT 

 










Legend :    VFR   Marginal VFR   IFR   Intensive IFR   Very Intensive IFR
Visi :
Ceiling :
>= 8 km
>= 3000ft
5 to 8 km
1000 to 3000 ft
1500m to 5 km
500 to 1000 ft
800 to 1500m
200 to 500 ft
< 800m
< 200 ft
Symbols :   Thunderstorms  Fog  Heavy snow  Heavy precipitations  Wind > 20 kt
SIGMETs :     Misc.  Thunderstorms  Icing  Turbulence  Mountain Waves  Volcanic Ashes






- Airport Elevation : 83 ft
- IATA code : LHR


EGLL - London Heathrow

CURRENT METAR :
  • 012150Z 14008KT 050V160 8000 SHRA SCT025 BKN040 10/08 Q0993 BECMG 9999 NSW

EXPIRED METARs :
  • 012120Z 12010KT 9999 -SHRA FEW030 BKN040 11/08 Q0993 TEMPO 4000 SHRA
  • 012050Z 11009KT 9999 FEW045 11/07 Q0993 TEMPO 4000 SHRA
  • 012020Z AUTO 12007KT 9999 -RA //////TCU 11/06 Q0994 TEMPO SHRA
  • 011950Z AUTO 13006KT 9999 NCD 11/06 Q0994 TEMPO SHRA
  • 011920Z AUTO 14006KT 9999 NCD 11/06 Q0995 TEMPO SHRA

TAF TAF EGLL
Valid from the 01 at 18:00 until the 03 at 00:00 UTC


011658Z 0118/0224 17007KT 9999 SCT045
TEMPO 0120/0213 6000 RA SHRA
PROB40
TEMPO 0123/0211 BKN009
BECMG 0201/0204 08016KT
BECMG 0204/0206 08018G30KT
PROB30
TEMPO 0202/0213 4000 +RA
BECMG 0211/0214 08006KT
BECMG 0219/0222 6000 RA
PROB40
TEMPO 0220/0224 2500 +RA BKN006



MET'MAP, your aeronautical weather chart ! - Copyright ORBIFLY December 2007 - Disclaimer

ORBIFLY MET'MAP TEAM :

Programming & Development : Alexandra Zaïnal
Concept & original design : Baudouin d'Aumeries
Assistance for programming : Marc-Olivier Méhu
Technical & hardware support : Manuel Goepfert

Contact : metmap@orbifly.com




SOURCES & CREDITS :

   NOAA